createdAt,value
2022-08-11T00:01:49.029Z,1.20
2022-08-11T00:04:17.086Z,1.80
2022-08-11T00:06:45.800Z,1.53
2022-08-11T00:09:16.177Z,1.50
2022-08-11T00:11:46.031Z,1.57
2022-08-11T00:14:16.110Z,1.33
2022-08-11T00:16:44.718Z,1.53
2022-08-11T00:19:13.665Z,1.83
2022-08-11T00:22:04.159Z,1.60
2022-08-11T00:24:38.695Z,1.60
2022-08-11T00:27:21.415Z,1.50
2022-08-11T00:29:55.381Z,1.60
2022-08-11T00:32:23.228Z,2.13
2022-08-11T00:34:51.088Z,1.53
2022-08-11T00:37:22.750Z,1.30
2022-08-11T00:39:52.069Z,1.87
2022-08-11T00:42:28.238Z,2.13
2022-08-11T00:45:01.714Z,1.60
2022-08-11T00:47:32.256Z,1.70
2022-08-11T00:50:18.225Z,1.93
2022-08-11T00:52:48.519Z,1.30
2022-08-11T00:55:15.989Z,1.80
2022-08-11T00:57:54.214Z,2.07
2022-08-11T01:00:23.026Z,1.73
2022-08-11T01:03:23.015Z,1.90
2022-08-11T01:06:08.820Z,1.63
2022-08-11T01:08:39.346Z,1.70
2022-08-11T01:11:27.055Z,1.80
2022-08-11T01:14:13.256Z,2.10
2022-08-11T01:16:46.759Z,1.73
2022-08-11T01:19:23.395Z,1.80
2022-08-11T01:21:59.966Z,2.40
2022-08-11T01:24:45.635Z,1.93
2022-08-11T01:27:33.405Z,1.50
2022-08-11T01:30:20.362Z,1.50
2022-08-11T01:33:05.346Z,1.77
2022-08-11T01:35:51.399Z,1.50
2022-08-11T01:38:21.705Z,2.03
2022-08-11T01:40:57.440Z,1.60
2022-08-11T01:43:35.779Z,1.70
2022-08-11T01:46:08.891Z,1.87
2022-08-11T01:48:45.359Z,1.80
2022-08-11T01:51:24.765Z,1.83
2022-08-11T01:53:58.106Z,1.60
2022-08-11T01:56:25.579Z,2.20
2022-08-11T01:59:04.676Z,1.90
2022-08-11T02:01:46.225Z,1.73
2022-08-11T02:04:26.382Z,2.10
2022-08-11T02:07:14.164Z,1.70
2022-08-11T02:10:03.246Z,2.00
2022-08-11T02:12:52.939Z,1.97
2022-08-11T02:15:25.441Z,1.90
2022-08-11T02:18:05.306Z,1.77
2022-08-11T02:20:37.478Z,1.80
2022-08-11T02:23:11.893Z,1.83
2022-08-11T02:25:58.657Z,2.10
2022-08-11T02:28:30.351Z,1.90
2022-08-11T02:31:14.662Z,2.03
2022-08-11T02:34:11.636Z,1.60
2022-08-11T02:36:43.551Z,1.73
2022-08-11T02:39:13.659Z,2.00
2022-08-11T02:41:59.739Z,1.63
2022-08-11T02:44:45.801Z,2.10
2022-08-11T02:47:25.767Z,2.20
2022-08-11T02:50:07.471Z,1.60
2022-08-11T02:52:41.389Z,1.90
2022-08-11T02:55:56.614Z,2.10
2022-08-11T02:58:31.477Z,1.80
2022-08-11T03:01:19.148Z,1.70
2022-08-11T03:03:54.117Z,1.80
2022-08-11T03:06:25.639Z,2.20
2022-08-11T03:09:02.017Z,2.17
2022-08-11T03:11:35.296Z,1.40
2022-08-11T03:14:21.897Z,1.97
2022-08-11T03:16:55.659Z,1.90
2022-08-11T03:19:42.878Z,1.90
2022-08-11T03:22:17.581Z,2.23
2022-08-11T03:25:11.008Z,2.50
2022-08-11T03:27:53.376Z,1.53
2022-08-11T03:30:32.942Z,2.10
2022-08-11T03:33:08.988Z,1.73
2022-08-11T03:35:39.885Z,2.03
2022-08-11T03:38:11.689Z,1.90
2022-08-11T03:40:48.261Z,2.03
2022-08-11T03:43:25.208Z,2.10
2022-08-11T03:46:06.622Z,2.00
2022-08-11T03:48:37.444Z,2.00
2022-08-11T03:51:13.576Z,1.80
2022-08-11T03:53:56.474Z,2.00
2022-08-11T03:56:42.007Z,1.80
2022-08-11T03:59:15.395Z,1.90
2022-08-11T04:02:05.057Z,2.20
2022-08-11T04:04:51.773Z,2.93
2022-08-11T04:07:26.553Z,2.17
2022-08-11T04:10:12.994Z,2.00
2022-08-11T04:12:55.742Z,2.20
2022-08-11T04:15:26.128Z,2.00
2022-08-11T04:17:53.591Z,2.50
2022-08-11T04:20:36.505Z,2.30
2022-08-11T04:24:33.278Z,2.20
2022-08-11T04:26:43.219Z,2.30
2022-08-11T04:29:10.761Z,1.97
2022-08-11T04:32:01.270Z,2.93
2022-08-11T04:34:45.402Z,2.10
2022-08-11T04:37:33.377Z,1.90
2022-08-11T04:40:23.580Z,2.47
2022-08-11T04:43:09.809Z,2.40
2022-08-11T04:45:55.858Z,2.63
2022-08-11T04:48:26.142Z,3.50
2022-08-11T04:51:23.446Z,2.73
2022-08-11T04:53:53.978Z,2.80
2022-08-11T04:56:31.204Z,2.30
2022-08-11T04:59:18.297Z,3.13
2022-08-11T05:01:51.838Z,2.53
2022-08-11T05:04:42.379Z,2.63
2022-08-11T05:07:21.461Z,2.33
2022-08-11T05:10:04.138Z,2.33
2022-08-11T05:12:47.858Z,2.90
2022-08-11T05:15:20.342Z,2.70
2022-08-11T05:18:13.101Z,2.57
2022-08-11T05:21:04.845Z,2.70
2022-08-11T05:23:39.257Z,2.27
2022-08-11T05:26:47.574Z,2.20
2022-08-11T05:29:08.278Z,2.40
2022-08-11T05:31:50.607Z,2.30
2022-08-11T05:34:29.598Z,2.70
2022-08-11T05:37:25.617Z,2.47
2022-08-11T05:39:57.230Z,1.73
2022-08-11T05:42:30.608Z,3.40
2022-08-11T05:45:00.530Z,2.80
2022-08-11T05:47:28.415Z,2.40
2022-08-11T05:49:57.936Z,2.40
2022-08-11T05:52:32.064Z,2.40
2022-08-11T05:55:07.363Z,2.57
2022-08-11T05:57:44.089Z,3.00
2022-08-11T06:00:19.563Z,2.90
2022-08-11T06:02:58.299Z,2.73
2022-08-11T06:05:31.453Z,2.30
2022-08-11T06:08:07.235Z,2.47
2022-08-11T06:10:38.799Z,2.30
2022-08-11T06:13:07.400Z,2.83
2022-08-11T06:15:44.034Z,3.13
2022-08-11T06:18:12.970Z,3.37
2022-08-11T06:20:48.020Z,2.73
2022-08-11T06:23:16.002Z,2.60
2022-08-11T06:25:43.691Z,2.87
2022-08-11T06:28:11.543Z,2.73
2022-08-11T06:30:39.044Z,2.43
2022-08-11T06:33:14.366Z,3.33
2022-08-11T06:35:50.847Z,3.17
2022-08-11T06:38:21.147Z,3.00
2022-08-11T06:40:59.070Z,3.40
2022-08-11T06:43:27.997Z,4.17
2022-08-11T06:46:00.472Z,4.53
2022-08-11T06:48:36.471Z,4.67
2022-08-11T06:51:08.403Z,3.70
2022-08-11T06:53:39.096Z,3.63
2022-08-11T06:56:08.587Z,3.43
2022-08-11T06:58:40.131Z,3.40
2022-08-11T07:01:17.152Z,3.10
2022-08-11T07:03:48.222Z,1.90
2022-08-11T07:06:36.585Z,2.53
2022-08-11T07:09:33.420Z,2.60
2022-08-11T07:12:06.268Z,2.57
2022-08-11T07:14:38.360Z,2.97
2022-08-11T07:17:10.504Z,4.57
2022-08-11T07:19:40.766Z,2.67
2022-08-11T07:22:11.612Z,2.30
2022-08-11T07:24:59.099Z,2.80
2022-08-11T07:27:37.662Z,2.47
2022-08-11T07:30:08.910Z,2.50
2022-08-11T07:32:45.064Z,2.80
2022-08-11T07:35:20.401Z,3.17
2022-08-11T07:38:01.745Z,2.60
2022-08-11T07:40:30.692Z,2.70
2022-08-11T07:43:00.347Z,2.10
2022-08-11T07:45:28.840Z,2.27
2022-08-11T07:48:00.890Z,2.30
2022-08-11T07:50:28.731Z,2.20
2022-08-11T07:52:59.819Z,2.67
2022-08-11T07:55:50.194Z,2.83
2022-08-11T07:58:20.232Z,2.97
2022-08-11T08:00:54.665Z,3.50
2022-08-11T08:03:22.943Z,2.53
2022-08-11T08:05:51.198Z,2.67
2022-08-11T08:08:18.948Z,2.87
2022-08-11T08:10:46.308Z,2.43
2022-08-11T08:13:14.086Z,2.87
2022-08-11T08:15:42.428Z,3.00
2022-08-11T08:18:26.900Z,2.37
2022-08-11T08:20:57.079Z,2.93
2022-08-11T08:23:32.078Z,2.57
2022-08-11T08:26:01.763Z,2.77
2022-08-11T08:28:32.486Z,2.30
2022-08-11T08:31:00.647Z,2.30
2022-08-11T08:33:37.772Z,2.20
2022-08-11T08:36:06.315Z,2.30
2022-08-11T08:38:33.573Z,2.53
2022-08-11T08:41:01.435Z,2.43
2022-08-11T08:43:29.368Z,2.43
2022-08-11T08:45:57.650Z,2.43
2022-08-11T08:48:27.853Z,2.40
2022-08-11T08:51:01.711Z,2.97
2022-08-11T08:53:34.834Z,2.23
2022-08-11T08:56:03.488Z,1.90
2022-08-11T08:58:33.331Z,2.77
2022-08-11T09:01:01.657Z,2.47
2022-08-11T09:04:04.612Z,2.47
2022-08-11T09:06:17.335Z,2.10
2022-08-11T09:08:45.364Z,2.43
2022-08-11T09:11:14.514Z,2.53
2022-08-11T09:13:42.869Z,2.43
2022-08-11T09:16:11.530Z,2.20
2022-08-11T09:18:41.427Z,2.70
2022-08-11T09:21:09.019Z,3.27
2022-08-11T09:26:30.755Z,2.20
2022-08-11T09:29:00.560Z,2.50
2022-08-11T09:31:34.615Z,2.23
2022-08-11T09:34:06.297Z,2.17
2022-08-11T09:36:34.102Z,2.40
2022-08-11T09:39:04.899Z,2.23
2022-08-11T09:42:23.818Z,3.07
2022-08-11T09:44:21.322Z,2.80
2022-08-11T09:46:50.336Z,2.17
2022-08-11T09:49:21.068Z,2.20
2022-08-11T09:52:02.010Z,2.47
2022-08-11T09:54:33.301Z,2.60
2022-08-11T09:57:05.181Z,1.97
2022-08-11T09:59:33.191Z,2.70
2022-08-11T10:02:03.869Z,2.27
2022-08-11T10:04:37.828Z,2.37
2022-08-11T10:07:06.266Z,2.13
2022-08-11T10:09:39.771Z,1.77
2022-08-11T10:12:09.946Z,2.60
2022-08-11T10:14:44.428Z,2.43
2022-08-11T10:17:14.153Z,2.60
2022-08-11T10:19:43.015Z,2.27
2022-08-11T10:22:10.581Z,2.40
2022-08-11T10:24:38.434Z,1.80
2022-08-11T10:27:05.985Z,1.87
2022-08-11T10:29:37.690Z,2.20
2022-08-11T10:32:14.219Z,2.47
2022-08-11T10:34:49.689Z,2.47
2022-08-11T10:37:23.085Z,2.13
2022-08-11T10:39:51.326Z,2.13
2022-08-11T10:42:30.271Z,2.20
2022-08-11T10:45:07.524Z,2.43
2022-08-11T10:47:35.285Z,2.60
2022-08-11T10:50:05.392Z,2.87
2022-08-11T10:52:45.990Z,2.47
2022-08-11T10:55:13.841Z,2.70
2022-08-11T10:57:41.595Z,2.40
2022-08-11T11:00:11.109Z,2.30
2022-08-11T11:02:39.916Z,2.10
2022-08-11T11:05:15.218Z,2.40
2022-08-11T11:07:53.406Z,2.50
2022-08-11T11:10:21.022Z,2.53
2022-08-11T11:12:52.232Z,2.30
2022-08-11T11:15:21.237Z,2.63
2022-08-11T11:17:52.763Z,2.27
2022-08-11T11:20:34.736Z,2.10
2022-08-11T11:23:13.349Z,2.37
2022-08-11T11:25:44.247Z,2.30
2022-08-11T11:28:30.574Z,2.25
2022-08-11T11:31:00.928Z,2.13
2022-08-11T11:34:06.038Z,2.28
2022-08-11T11:36:32.273Z,2.83
2022-08-11T11:39:00.256Z,2.23
2022-08-11T11:41:27.948Z,2.15
2022-08-11T11:43:58.780Z,2.30
2022-08-11T11:46:30.539Z,2.40
2022-08-11T11:48:58.943Z,2.53
2022-08-11T11:51:27.049Z,2.35
2022-08-11T11:53:54.745Z,2.30
2022-08-11T11:56:24.340Z,2.50
2022-08-11T11:58:53.561Z,2.17
2022-08-11T12:01:21.103Z,2.80
2022-08-11T12:03:50.857Z,2.97
2022-08-11T12:06:19.535Z,2.97
2022-08-11T12:08:49.825Z,2.97
2022-08-11T12:11:17.900Z,2.88
2022-08-11T12:13:49.178Z,2.63
2022-08-11T12:16:33.060Z,2.80
2022-08-11T12:19:03.460Z,2.53
2022-08-11T12:21:31.055Z,2.50
2022-08-11T12:24:04.264Z,2.57
2022-08-11T12:26:32.227Z,3.00
2022-08-11T12:29:00.857Z,2.58
2022-08-11T12:31:33.039Z,2.50
2022-08-11T12:34:01.465Z,2.53
2022-08-11T12:36:29.340Z,2.45
2022-08-11T12:38:57.199Z,2.23
2022-08-11T12:41:25.525Z,2.55
2022-08-11T12:43:56.423Z,2.55
2022-08-11T12:46:33.649Z,3.00
2022-08-11T12:49:03.975Z,2.85
2022-08-11T12:52:06.728Z,2.45
2022-08-11T12:54:40.087Z,2.88
2022-08-11T12:57:10.688Z,2.50
2022-08-11T12:59:40.141Z,2.83
2022-08-11T13:02:09.211Z,2.75
2022-08-11T13:04:37.317Z,2.50
2022-08-11T13:07:06.871Z,2.20
2022-08-11T13:09:34.579Z,2.75
2022-08-11T13:12:02.512Z,2.70
2022-08-11T13:14:30.868Z,2.60
2022-08-11T13:16:58.743Z,1.90
2022-08-11T13:19:26.308Z,2.80
2022-08-11T13:21:54.369Z,2.65
2022-08-11T13:24:22.417Z,2.75
2022-08-11T13:26:53.978Z,2.60
2022-08-11T13:29:23.108Z,2.70
2022-08-11T13:31:51.234Z,2.15
2022-08-11T13:34:20.333Z,2.50
2022-08-11T13:36:49.814Z,2.30
2022-08-11T13:39:17.618Z,2.35
2022-08-11T13:41:45.412Z,2.72
2022-08-11T13:44:15.537Z,2.75
2022-08-11T13:46:45.543Z,2.50
2022-08-11T13:49:16.638Z,2.65
2022-08-11T13:51:44.801Z,2.85
2022-08-11T13:54:20.059Z,2.85
2022-08-11T13:56:52.654Z,3.60
2022-08-11T13:59:29.767Z,2.75
2022-08-11T14:02:20.020Z,2.50
2022-08-11T14:04:57.666Z,2.50
2022-08-11T14:07:28.145Z,2.10
2022-08-11T14:09:59.800Z,2.35
2022-08-11T14:12:29.299Z,2.35
2022-08-11T14:15:08.578Z,2.40
2022-08-11T14:17:47.981Z,2.40
2022-08-11T14:20:39.619Z,2.80
2022-08-11T14:23:06.183Z,3.22
2022-08-11T14:26:00.007Z,2.63
2022-08-11T14:28:41.759Z,2.80
2022-08-11T14:31:09.692Z,2.47
2022-08-11T14:33:59.528Z,2.60
2022-08-11T14:36:27.202Z,2.25
2022-08-11T14:38:55.246Z,2.25
2022-08-11T14:41:24.410Z,1.67
2022-08-11T14:44:14.189Z,2.20
2022-08-11T14:46:40.998Z,2.40
2022-08-11T14:49:08.576Z,2.55
2022-08-11T14:51:36.665Z,2.35
2022-08-11T14:54:04.546Z,2.08
2022-08-11T14:56:34.155Z,2.72
2022-08-11T14:59:02.896Z,2.15
2022-08-11T15:01:30.609Z,2.40
2022-08-11T15:04:06.170Z,2.42
2022-08-11T15:06:46.691Z,2.30
2022-08-11T15:09:14.401Z,2.70
2022-08-11T15:11:42.610Z,2.58
2022-08-11T15:14:11.265Z,2.50
2022-08-11T15:16:41.756Z,2.50
2022-08-11T15:19:09.519Z,2.87
2022-08-11T15:21:37.033Z,2.70
2022-08-11T15:24:04.726Z,2.10
2022-08-11T15:26:40.044Z,2.42
2022-08-11T15:29:07.795Z,2.42
2022-08-11T15:31:37.278Z,2.50
2022-08-11T15:34:06.071Z,2.92
2022-08-11T15:36:34.569Z,2.53
2022-08-11T15:39:04.295Z,2.35
2022-08-11T15:41:40.166Z,1.92
2022-08-11T15:44:09.776Z,2.60
2022-08-11T15:46:42.790Z,2.28
2022-08-11T15:49:22.017Z,2.53
2022-08-11T15:52:04.564Z,2.80
2022-08-11T15:54:33.131Z,2.20
2022-08-11T15:57:01.429Z,2.22
2022-08-11T15:59:41.802Z,2.70
2022-08-11T16:02:19.244Z,2.53
2022-08-11T16:04:47.948Z,2.63
2022-08-11T16:07:16.469Z,2.63
2022-08-11T16:10:00.572Z,2.97
2022-08-11T16:12:32.459Z,2.45
2022-08-11T16:15:04.297Z,2.60
2022-08-11T16:17:35.230Z,2.67
2022-08-11T16:20:03.432Z,2.58
2022-08-11T16:22:33.796Z,2.70
2022-08-11T16:27:04.603Z,3.30
2022-08-11T16:27:55.693Z,2.67
2022-08-11T16:30:23.354Z,3.00
2022-08-11T16:32:52.005Z,2.95
2022-08-11T16:35:21.072Z,2.60
2022-08-11T16:37:49.619Z,2.78
2022-08-11T16:40:18.037Z,2.85
2022-08-11T16:43:04.563Z,2.50
2022-08-11T16:45:35.711Z,2.75
2022-08-11T16:48:35.645Z,3.05
2022-08-11T16:50:51.344Z,2.40
2022-08-11T16:53:19.057Z,2.60
2022-08-11T16:55:52.629Z,2.65
2022-08-11T16:58:21.770Z,2.22
2022-08-11T17:00:50.416Z,2.80
2022-08-11T17:03:19.293Z,2.47
2022-08-11T17:05:54.103Z,2.87
2022-08-11T17:08:29.791Z,2.70
2022-08-11T17:11:03.658Z,2.38
2022-08-11T17:13:37.657Z,2.43
2022-08-11T17:16:06.494Z,2.30
2022-08-11T17:18:54.280Z,2.40
2022-08-11T17:21:27.851Z,2.77
2022-08-11T17:24:08.112Z,2.30
2022-08-11T17:26:43.680Z,2.53
2022-08-11T17:29:11.967Z,2.60
2022-08-11T17:31:39.903Z,2.28
2022-08-11T17:34:08.224Z,2.53
2022-08-11T17:36:40.375Z,2.60
2022-08-11T17:39:11.863Z,2.38
2022-08-11T17:41:41.098Z,2.38
2022-08-11T17:44:08.861Z,2.30
2022-08-11T17:46:37.353Z,2.40
2022-08-11T17:49:07.037Z,2.80
2022-08-11T17:51:35.467Z,2.80
2022-08-11T17:54:24.065Z,2.63
2022-08-11T17:56:52.770Z,2.55
2022-08-11T17:59:20.777Z,2.73
2022-08-11T18:01:51.322Z,2.45
2022-08-11T18:04:21.934Z,2.57
2022-08-11T18:06:51.776Z,2.53
2022-08-11T18:09:23.657Z,2.20
2022-08-11T18:12:10.507Z,2.40
2022-08-11T18:14:41.071Z,2.70
2022-08-11T18:17:08.579Z,2.20
2022-08-11T18:19:36.494Z,2.40
2022-08-11T18:22:15.646Z,2.60
2022-08-11T18:24:54.257Z,2.90
2022-08-11T18:27:23.284Z,2.57
2022-08-11T18:29:52.368Z,2.33
2022-08-11T18:32:27.147Z,2.50
2022-08-11T18:35:03.112Z,2.93
2022-08-11T18:37:33.292Z,2.43
2022-08-11T18:40:12.716Z,2.60
2022-08-11T18:42:41.988Z,2.60
2022-08-11T18:45:11.708Z,2.53
2022-08-11T18:47:40.636Z,3.13
2022-08-11T18:50:10.268Z,2.60
2022-08-11T18:52:43.475Z,2.77
2022-08-11T18:55:12.578Z,2.70
2022-08-11T18:57:53.902Z,2.90
2022-08-11T19:00:22.414Z,2.40
2022-08-11T19:02:50.735Z,2.87
2022-08-11T19:06:36.687Z,2.80
2022-08-11T19:08:10.275Z,2.63
2022-08-11T19:10:37.807Z,2.43
2022-08-11T19:13:10.339Z,3.53
2022-08-11T19:15:38.418Z,2.73
2022-08-11T19:18:06.716Z,2.70
2022-08-11T19:20:36.168Z,2.73
2022-08-11T19:23:06.049Z,2.60
2022-08-11T19:25:34.139Z,2.43
2022-08-11T19:28:02.306Z,2.90
2022-08-11T19:30:29.951Z,2.77
2022-08-11T19:32:57.701Z,3.20
2022-08-11T19:35:25.775Z,2.80
2022-08-11T19:37:53.681Z,2.77
2022-08-11T19:40:21.710Z,2.30
2022-08-11T19:42:50.363Z,3.00
2022-08-11T19:45:17.932Z,2.73
2022-08-11T19:47:46.809Z,2.60
2022-08-11T19:50:18.749Z,2.90
2022-08-11T19:52:49.288Z,3.10
2022-08-11T19:55:18.239Z,2.77
2022-08-11T19:57:46.445Z,2.57
2022-08-11T20:00:16.038Z,2.93
2022-08-11T20:02:44.506Z,3.00
2022-08-11T20:05:12.026Z,2.60
2022-08-11T20:07:39.658Z,3.00
2022-08-11T20:10:10.450Z,3.07
2022-08-11T20:12:39.248Z,2.93
2022-08-11T20:15:07.866Z,2.37
2022-08-11T20:17:38.419Z,2.97
2022-08-11T20:20:07.901Z,2.60
2022-08-11T20:22:35.474Z,3.20
2022-08-11T20:25:04.742Z,2.50
2022-08-11T20:27:33.175Z,3.30
2022-08-11T20:30:02.198Z,2.30
2022-08-11T20:32:29.785Z,2.80
2022-08-11T20:34:58.229Z,2.43
2022-08-11T20:37:26.612Z,3.03
2022-08-11T20:39:55.577Z,3.23
2022-08-11T20:42:28.444Z,2.93
2022-08-11T20:44:59.181Z,2.53
2022-08-11T20:47:27.706Z,3.17
2022-08-11T20:49:58.682Z,2.53
2022-08-11T20:52:30.470Z,2.40
2022-08-11T20:54:59.819Z,2.90
2022-08-11T20:57:35.494Z,3.03
2022-08-11T21:00:16.099Z,3.53
2022-08-11T21:03:03.780Z,2.90
2022-08-11T21:06:08.598Z,2.60
2022-08-11T21:08:25.575Z,3.37
2022-08-11T21:10:54.424Z,2.60
2022-08-11T21:13:26.767Z,3.33
2022-08-11T21:16:07.957Z,3.10
2022-08-11T21:18:36.399Z,2.97
2022-08-11T21:21:07.015Z,2.70
2022-08-11T21:23:36.200Z,3.00
2022-08-11T21:26:06.954Z,2.80
2022-08-11T21:28:35.667Z,3.33
2022-08-11T21:31:04.283Z,3.10
2022-08-11T21:33:35.349Z,3.30
2022-08-11T21:36:03.576Z,2.53
2022-08-11T21:38:31.619Z,3.17
2022-08-11T21:41:00.376Z,2.97
2022-08-11T21:43:32.788Z,2.70
2022-08-11T21:46:00.761Z,2.70
2022-08-11T21:48:28.817Z,2.80
2022-08-11T21:50:56.318Z,2.97
2022-08-11T21:53:24.237Z,3.20
2022-08-11T21:55:52.648Z,2.70
2022-08-11T21:58:20.824Z,3.37
2022-08-11T22:00:48.589Z,2.60
2022-08-11T22:03:16.346Z,3.30
2022-08-11T22:05:47.554Z,3.20
2022-08-11T22:08:15.741Z,2.53
2022-08-11T22:10:43.370Z,3.00
2022-08-11T22:13:11.973Z,2.50
2022-08-11T22:15:39.752Z,2.37
2022-08-11T22:18:08.306Z,3.13
2022-08-11T22:20:36.160Z,2.80
2022-08-11T22:23:04.405Z,2.63
2022-08-11T22:25:38.452Z,2.40
2022-08-11T22:28:06.505Z,2.67
2022-08-11T22:30:34.152Z,3.23
2022-08-11T22:33:08.292Z,2.57
2022-08-11T22:35:36.328Z,2.87
2022-08-11T22:38:06.568Z,2.93
2022-08-11T22:40:34.672Z,2.33
2022-08-11T22:43:02.246Z,2.63
2022-08-11T22:45:29.866Z,2.70
2022-08-11T22:47:58.979Z,2.37
2022-08-11T22:50:26.714Z,2.37
2022-08-11T22:52:54.823Z,2.60
2022-08-11T22:55:23.090Z,2.90
2022-08-11T22:58:00.894Z,3.00
2022-08-11T23:00:30.316Z,2.67
2022-08-11T23:02:58.929Z,2.50
2022-08-11T23:05:26.640Z,2.87
2022-08-11T23:07:55.042Z,2.90
2022-08-11T23:10:22.886Z,2.50
2022-08-11T23:12:50.589Z,3.00
2022-08-11T23:15:18.317Z,2.77
2022-08-11T23:17:45.885Z,2.70
2022-08-11T23:20:34.323Z,2.70
2022-08-11T23:23:03.625Z,2.43
2022-08-11T23:25:37.178Z,2.43
2022-08-11T23:28:05.906Z,5.00
2022-08-11T23:30:34.808Z,2.80
2022-08-11T23:33:03.414Z,2.40
2022-08-11T23:35:40.439Z,2.70
2022-08-11T23:38:20.439Z,3.00
2022-08-11T23:40:48.434Z,3.20
2022-08-11T23:43:22.516Z,2.63
2022-08-11T23:45:50.052Z,2.73
2022-08-11T23:48:19.013Z,2.50
2022-08-11T23:50:46.709Z,2.40
2022-08-11T23:53:14.664Z,2.77
2022-08-11T23:55:42.865Z,2.77
2022-08-11T23:58:11.449Z,2.80
